createdAt,value
2018-02-22T00:01:18.892Z,78.43
2018-02-22T00:03:46.782Z,72.83
2018-02-22T00:06:14.620Z,75.53
2018-02-22T00:08:42.385Z,75.33
2018-02-22T00:11:10.481Z,81.57
2018-02-22T00:13:38.559Z,78.03
2018-02-22T00:16:06.393Z,74.00
2018-02-22T00:18:34.186Z,78.10
2018-02-22T00:21:02.515Z,76.23
2018-02-22T00:23:30.627Z,84.70
2018-02-22T00:25:58.574Z,83.23
2018-02-22T00:28:26.450Z,82.33
2018-02-22T00:30:54.225Z,84.87
2018-02-22T00:33:22.793Z,84.83
2018-02-22T00:35:51.094Z,87.03
2018-02-22T00:38:18.953Z,69.53
2018-02-22T00:40:46.958Z,73.60
2018-02-22T00:43:15.704Z,79.97
2018-02-22T00:45:43.574Z,82.37
2018-02-22T00:48:11.539Z,91.50
2018-02-22T00:50:39.304Z,71.10
2018-02-22T00:53:07.180Z,74.77
2018-02-22T00:55:35.119Z,76.60
2018-02-22T00:58:03.011Z,63.83
2018-02-22T01:00:30.977Z,81.67
2018-02-22T01:02:58.926Z,79.20
2018-02-22T01:05:27.019Z,77.17
2018-02-22T01:07:54.875Z,69.23
2018-02-22T01:10:22.935Z,71.70
2018-02-22T01:12:51.654Z,74.60
2018-02-22T01:15:19.399Z,74.13
2018-02-22T01:17:47.243Z,69.03
2018-02-22T01:20:15.042Z,71.40
2018-02-22T01:22:42.984Z,80.27
2018-02-22T01:25:10.955Z,66.53
2018-02-22T01:27:38.736Z,71.13
2018-02-22T01:30:06.628Z,75.57
2018-02-22T01:32:35.770Z,72.90
2018-02-22T01:35:03.571Z,73.83
2018-02-22T01:37:33.083Z,73.50
2018-02-22T01:40:02.343Z,70.63
2018-02-22T01:42:30.210Z,74.67
2018-02-22T01:44:58.122Z,79.97
2018-02-22T01:47:26.720Z,70.07
2018-02-22T01:49:54.702Z,74.40
2018-02-22T01:52:22.698Z,65.60
2018-02-22T01:54:50.593Z,68.93
2018-02-22T01:57:20.172Z,73.53
2018-02-22T01:59:48.067Z,63.83
2018-02-22T02:02:16.109Z,71.03
2018-02-22T02:04:44.106Z,76.60
2018-02-22T02:07:11.974Z,69.27
2018-02-22T02:09:39.736Z,83.30
2018-02-22T02:12:07.597Z,77.03
2018-02-22T02:14:35.441Z,76.50
2018-02-22T02:17:03.325Z,74.23
2018-02-22T02:19:31.282Z,75.53
2018-02-22T02:21:59.256Z,68.63
2018-02-22T02:24:27.214Z,75.90
2018-02-22T02:26:54.970Z,73.30
2018-02-22T02:29:22.845Z,83.00
2018-02-22T02:31:50.605Z,75.87
2018-02-22T02:34:18.510Z,79.90
2018-02-22T02:36:46.441Z,88.63
2018-02-22T02:39:15.133Z,81.67
2018-02-22T02:41:43.096Z,75.10
2018-02-22T02:44:10.983Z,80.10
2018-02-22T02:46:38.935Z,75.93
2018-02-22T02:49:06.896Z,77.27
2018-02-22T02:51:34.786Z,79.73
2018-02-22T02:54:02.742Z,79.83
2018-02-22T02:56:30.615Z,77.17
2018-02-22T02:58:58.470Z,91.03
2018-02-22T03:01:27.670Z,81.20
2018-02-22T03:03:55.458Z,76.97
2018-02-22T03:06:23.316Z,83.57
2018-02-22T03:08:51.179Z,85.97
2018-02-22T03:11:19.131Z,83.33
2018-02-22T03:13:47.125Z,83.43
2018-02-22T03:16:15.012Z,92.40
2018-02-22T03:18:43.567Z,80.03
2018-02-22T03:21:11.444Z,91.57
2018-02-22T03:23:39.623Z,87.80
2018-02-22T03:26:07.662Z,75.87
2018-02-22T03:28:35.446Z,83.80
2018-02-22T03:31:03.242Z,90.53
2018-02-22T03:33:31.897Z,89.10
2018-02-22T03:35:59.871Z,84.43
2018-02-22T03:38:28.406Z,88.67
2018-02-22T03:40:56.204Z,81.37
2018-02-22T03:43:24.186Z,78.60
2018-02-22T03:45:52.044Z,89.37
2018-02-22T03:48:19.910Z,83.37
2018-02-22T03:50:47.964Z,79.77
2018-02-22T03:53:15.850Z,86.70
2018-02-22T03:55:43.670Z,88.03
2018-02-22T03:58:11.577Z,92.50
2018-02-22T04:00:39.632Z,81.87
2018-02-22T04:03:07.495Z,94.73
2018-02-22T04:05:35.309Z,82.00
2018-02-22T04:08:04.167Z,93.00
2018-02-22T04:10:32.116Z,95.00
2018-02-22T04:13:00.362Z,96.27
2018-02-22T04:15:28.409Z,91.77
2018-02-22T04:17:57.168Z,91.57
2018-02-22T04:20:24.987Z,83.23
2018-02-22T04:22:52.884Z,86.97
2018-02-22T04:25:20.849Z,94.43
2018-02-22T04:27:48.608Z,100.00
2018-02-22T04:30:16.592Z,102.67
2018-02-22T04:32:44.557Z,102.30
2018-02-22T04:35:12.597Z,96.33
2018-02-22T04:37:41.133Z,101.00
2018-02-22T04:40:09.071Z,97.13
2018-02-22T04:42:36.942Z,99.97
2018-02-22T04:45:05.032Z,98.07
2018-02-22T04:47:32.831Z,104.93
2018-02-22T04:50:01.526Z,104.17
2018-02-22T04:52:29.339Z,105.17
2018-02-22T04:54:57.102Z,109.47
2018-02-22T04:57:25.694Z,112.57
2018-02-22T04:59:53.669Z,107.00
2018-02-22T05:02:21.529Z,103.87
2018-02-22T05:04:50.095Z,94.07
2018-02-22T05:07:17.976Z,105.40
2018-02-22T05:09:46.850Z,114.17
2018-02-22T05:12:16.457Z,103.13
2018-02-22T05:14:44.239Z,115.70
2018-02-22T05:17:12.464Z,102.37
2018-02-22T05:19:40.573Z,97.13
2018-02-22T05:22:08.441Z,107.93
2018-02-22T05:24:36.316Z,103.67
2018-02-22T05:27:04.306Z,104.97
2018-02-22T05:29:32.522Z,118.53
2018-02-22T05:32:00.848Z,100.17
2018-02-22T05:34:28.957Z,115.93
2018-02-22T05:36:57.035Z,97.67
2018-02-22T05:39:26.561Z,110.53
2018-02-22T05:41:54.576Z,100.40
2018-02-22T05:44:23.230Z,97.50
2018-02-22T05:46:51.094Z,102.47
2018-02-22T05:49:18.912Z,107.53
2018-02-22T05:51:47.580Z,112.00
2018-02-22T05:54:16.244Z,112.73
2018-02-22T05:56:46.509Z,103.30
2018-02-22T05:59:14.414Z,101.77
2018-02-22T06:01:42.323Z,113.00
2018-02-22T06:04:11.046Z,109.17
2018-02-22T06:06:38.807Z,100.90
2018-02-22T06:09:06.716Z,110.03
2018-02-22T06:11:34.794Z,99.30
2018-02-22T06:14:02.965Z,104.63
2018-02-22T06:16:30.932Z,165.67
2018-02-22T06:18:58.985Z,105.40
2018-02-22T06:21:26.784Z,110.90
2018-02-22T06:23:54.754Z,117.73
2018-02-22T06:26:23.707Z,123.33
2018-02-22T06:28:51.676Z,91.40
2018-02-22T06:31:19.541Z,91.80
2018-02-22T06:33:47.529Z,97.43
2018-02-22T06:36:15.604Z,120.90
2018-02-22T06:38:43.371Z,103.40
2018-02-22T06:41:11.443Z,91.93
2018-02-22T06:43:39.315Z,100.77
2018-02-22T06:46:07.247Z,106.37
2018-02-22T06:48:35.025Z,98.90
2018-02-22T06:51:02.806Z,100.03
2018-02-22T06:53:30.825Z,93.97
2018-02-22T06:55:58.960Z,92.63
2018-02-22T06:58:26.703Z,100.80
2018-02-22T07:00:54.579Z,89.33
2018-02-22T07:03:22.433Z,96.90
2018-02-22T07:05:50.299Z,90.53
2018-02-22T07:08:18.067Z,100.27
2018-02-22T07:10:45.927Z,95.40
2018-02-22T07:13:13.883Z,99.83
2018-02-22T07:15:41.715Z,88.73
2018-02-22T07:18:09.743Z,83.37
2018-02-22T07:20:37.811Z,98.37
2018-02-22T07:23:16.650Z,95.27
2018-02-22T07:25:33.724Z,82.27
2018-02-22T07:28:01.962Z,80.63
2018-02-22T07:30:30.034Z,93.63
2018-02-22T07:32:58.575Z,80.20
2018-02-22T07:35:26.460Z,78.73
2018-02-22T07:37:54.306Z,71.77
2018-02-22T07:40:22.439Z,81.37
2018-02-22T07:42:50.352Z,76.27
2018-02-22T07:45:18.132Z,86.13
2018-02-22T07:47:46.857Z,81.60
2018-02-22T07:50:14.744Z,85.87
2018-02-22T07:52:42.714Z,70.40
2018-02-22T07:55:11.145Z,84.63
2018-02-22T07:57:39.696Z,76.17
2018-02-22T08:00:07.610Z,82.10
2018-02-22T08:02:35.611Z,83.77
2018-02-22T08:05:03.406Z,71.20
2018-02-22T08:07:32.054Z,72.63
2018-02-22T08:10:00.552Z,77.60
2018-02-22T08:12:28.521Z,77.03
2018-02-22T08:14:57.117Z,71.63
2018-02-22T08:17:24.987Z,67.40
2018-02-22T08:19:52.844Z,74.70
2018-02-22T08:22:20.757Z,63.93
2018-02-22T08:24:48.579Z,62.67
2018-02-22T08:27:17.254Z,60.13
2018-02-22T08:29:45.125Z,62.90
2018-02-22T08:32:12.991Z,57.23
2018-02-22T08:34:40.912Z,57.13
2018-02-22T08:37:09.735Z,61.33
2018-02-22T08:39:37.499Z,64.07
2018-02-22T08:42:05.741Z,56.10
2018-02-22T08:44:33.562Z,67.20
2018-02-22T08:47:09.211Z,61.70
2018-02-22T08:49:37.070Z,53.97
2018-02-22T08:52:04.841Z,61.17
2018-02-22T08:54:32.808Z,64.63
2018-02-22T08:57:01.188Z,54.43
2018-02-22T08:59:29.319Z,59.43
2018-02-22T09:01:57.126Z,64.70
2018-02-22T09:04:24.992Z,51.53
2018-02-22T09:06:52.792Z,61.07
2018-02-22T09:09:20.804Z,58.07
2018-02-22T09:11:49.200Z,55.77
2018-02-22T09:14:16.954Z,54.73
2018-02-22T09:16:44.833Z,49.80
2018-02-22T09:19:13.541Z,61.03
2018-02-22T09:21:42.129Z,61.90
2018-02-22T09:24:10.881Z,59.93
2018-02-22T09:26:38.840Z,51.97
2018-02-22T09:29:06.775Z,57.93
2018-02-22T09:31:35.413Z,63.83
2018-02-22T09:34:03.362Z,66.60
2018-02-22T09:36:31.456Z,55.13
2018-02-22T09:39:00.763Z,55.10
2018-02-22T09:41:28.809Z,51.50
2018-02-22T09:43:56.670Z,55.60
2018-02-22T09:46:24.457Z,59.90
2018-02-22T09:48:53.733Z,44.80
2018-02-22T09:51:21.737Z,62.50
2018-02-22T09:53:49.674Z,50.13
2018-02-22T09:56:17.666Z,48.73
2018-02-22T09:58:45.443Z,64.53
2018-02-22T10:01:14.192Z,49.60
2018-02-22T10:03:41.977Z,65.30
2018-02-22T10:06:09.942Z,50.20
2018-02-22T10:08:37.898Z,56.20
2018-02-22T10:11:05.989Z,52.27
2018-02-22T10:13:33.758Z,58.00
2018-02-22T10:16:03.051Z,55.63
2018-02-22T10:18:31.733Z,59.00
2018-02-22T10:20:59.605Z,50.17
2018-02-22T10:23:27.462Z,54.77
2018-02-22T10:25:55.335Z,55.70
2018-02-22T10:28:23.304Z,51.60
2018-02-22T10:30:51.247Z,54.23
2018-02-22T10:33:19.037Z,52.77
2018-02-22T10:35:46.901Z,51.67
2018-02-22T10:38:14.852Z,58.83
2018-02-22T10:40:42.845Z,52.80
2018-02-22T10:43:10.699Z,60.57
2018-02-22T10:45:38.752Z,55.60
2018-02-22T10:48:06.558Z,57.60
2018-02-22T10:50:34.380Z,53.30
2018-02-22T10:53:02.371Z,49.10
2018-02-22T10:55:30.222Z,51.70
2018-02-22T10:57:58.396Z,45.23
2018-02-22T11:00:32.115Z,52.13
2018-02-22T11:03:00.425Z,50.27
2018-02-22T11:05:28.960Z,57.33
2018-02-22T11:07:56.847Z,47.53
2018-02-22T11:10:24.734Z,61.50
2018-02-22T11:12:54.012Z,64.13
2018-02-22T11:15:22.496Z,56.03
2018-02-22T11:17:50.440Z,51.43
2018-02-22T11:20:18.329Z,55.20
2018-02-22T11:22:47.224Z,61.00
2018-02-22T11:25:15.171Z,55.90
2018-02-22T11:27:43.033Z,48.90
2018-02-22T11:30:10.900Z,53.20
2018-02-22T11:32:39.799Z,54.10
2018-02-22T11:35:07.963Z,61.63
2018-02-22T11:37:35.995Z,59.47
2018-02-22T11:40:03.908Z,51.50
2018-02-22T11:42:31.765Z,58.50
2018-02-22T11:44:59.908Z,55.00
2018-02-22T11:47:28.897Z,51.93
2018-02-22T11:49:56.923Z,53.57
2018-02-22T11:52:25.209Z,51.93
2018-02-22T11:54:53.071Z,59.97
2018-02-22T11:57:20.947Z,60.43
2018-02-22T11:59:49.628Z,52.37
2018-02-22T12:02:17.486Z,51.37
2018-02-22T12:04:45.951Z,53.73
2018-02-22T12:07:13.838Z,57.77
2018-02-22T12:09:41.906Z,56.00
2018-02-22T12:12:09.970Z,61.40
2018-02-22T12:14:37.843Z,53.10
2018-02-22T12:17:05.687Z,58.43
2018-02-22T12:19:33.553Z,60.83
2018-02-22T12:22:01.460Z,57.40
2018-02-22T12:24:30.004Z,60.90
2018-02-22T12:26:58.688Z,60.17
2018-02-22T12:29:26.553Z,56.90
2018-02-22T12:31:54.400Z,67.37
2018-02-22T12:34:22.595Z,59.97
2018-02-22T12:36:50.375Z,65.80
2018-02-22T12:39:18.325Z,52.97
2018-02-22T12:41:46.295Z,60.27
2018-02-22T12:44:14.079Z,58.53
2018-02-22T12:46:42.159Z,55.53
2018-02-22T12:49:10.023Z,106.47
2018-02-22T12:51:37.963Z,75.20
2018-02-22T12:54:05.738Z,64.30
2018-02-22T12:56:33.818Z,63.83
2018-02-22T12:59:01.946Z,59.13
2018-02-22T13:01:30.237Z,59.13
2018-02-22T13:03:58.272Z,58.63
2018-02-22T13:06:41.450Z,56.77
2018-02-22T13:09:09.439Z,52.50
2018-02-22T13:11:37.298Z,55.80
2018-02-22T13:14:05.067Z,58.70
2018-02-22T13:16:32.928Z,62.93
2018-02-22T13:19:00.907Z,51.83
2018-02-22T13:21:29.566Z,64.33
2018-02-22T13:23:57.442Z,58.03
2018-02-22T13:26:25.328Z,57.27
2018-02-22T13:28:53.188Z,57.40
2018-02-22T13:31:21.136Z,62.50
2018-02-22T13:34:00.932Z,55.03
2018-02-22T13:36:29.677Z,61.23
2018-02-22T13:39:09.243Z,60.10
2018-02-22T13:41:37.056Z,63.57
2018-02-22T13:44:16.734Z,56.17
2018-02-22T13:46:44.685Z,69.20
2018-02-22T13:49:24.559Z,63.33
2018-02-22T13:51:53.960Z,64.80
2018-02-22T13:54:21.833Z,60.10
2018-02-22T13:57:01.576Z,60.63
2018-02-22T13:59:29.646Z,66.57
2018-02-22T14:02:09.563Z,61.03
2018-02-22T14:04:37.345Z,62.07
2018-02-22T14:07:05.216Z,62.03
2018-02-22T14:09:33.168Z,63.30
2018-02-22T14:12:01.929Z,57.90
2018-02-22T14:14:29.842Z,65.47
2018-02-22T14:16:57.685Z,66.97
2018-02-22T14:19:25.578Z,57.63
2018-02-22T14:21:53.521Z,59.30
2018-02-22T14:24:21.488Z,67.03
2018-02-22T14:26:49.764Z,57.00
2018-02-22T14:29:18.068Z,63.00
2018-02-22T14:31:45.820Z,67.07
2018-02-22T14:34:13.773Z,67.20
2018-02-22T14:36:41.638Z,64.73
2018-02-22T14:39:09.609Z,67.33
2018-02-22T14:41:37.545Z,66.83
2018-02-22T14:44:05.957Z,62.77
2018-02-22T14:46:35.803Z,55.20
2018-02-22T14:49:03.736Z,68.20
2018-02-22T14:51:31.622Z,59.70
2018-02-22T14:53:59.570Z,60.57
2018-02-22T14:56:27.357Z,55.30
2018-02-22T14:58:55.297Z,64.83
2018-02-22T15:01:23.137Z,59.80
2018-02-22T15:03:51.981Z,65.70
2018-02-22T15:06:19.925Z,57.53
2018-02-22T15:08:47.731Z,123.23
2018-02-22T15:11:15.575Z,80.13
2018-02-22T15:13:43.540Z,64.03
2018-02-22T15:16:11.492Z,57.47
2018-02-22T15:18:39.361Z,61.97
2018-02-22T15:21:07.247Z,64.13
2018-02-22T15:23:35.162Z,57.60
2018-02-22T15:26:02.985Z,60.30
2018-02-22T15:28:30.944Z,58.90
2018-02-22T15:30:59.305Z,68.03
2018-02-22T15:33:27.294Z,67.23
2018-02-22T15:35:55.242Z,69.87
2018-02-22T15:38:23.008Z,72.13
2018-02-22T15:40:51.064Z,71.53
2018-02-22T15:43:19.079Z,64.03
2018-02-22T15:45:47.053Z,65.57
2018-02-22T15:48:14.983Z,64.87
2018-02-22T15:50:42.874Z,65.53
2018-02-22T15:53:11.051Z,82.53
2018-02-22T15:55:38.995Z,79.20
2018-02-22T15:58:08.645Z,75.03
2018-02-22T16:00:37.390Z,68.00
2018-02-22T16:03:05.903Z,66.87
2018-02-22T16:05:34.206Z,75.97
2018-02-22T16:08:02.353Z,68.77
2018-02-22T16:10:30.534Z,70.17
2018-02-22T16:12:59.442Z,74.13
2018-02-22T16:15:28.279Z,66.57
2018-02-22T16:17:57.084Z,73.73
2018-02-22T16:20:25.066Z,72.50
2018-02-22T16:22:52.893Z,63.03
2018-02-22T16:25:20.972Z,63.43
2018-02-22T16:27:49.057Z,71.60
2018-02-22T16:30:16.930Z,69.60
2018-02-22T16:32:44.874Z,64.20
2018-02-22T16:35:12.774Z,63.97
2018-02-22T16:37:42.067Z,70.40
2018-02-22T16:40:10.690Z,67.30
2018-02-22T16:42:38.803Z,74.57
2018-02-22T16:45:07.175Z,63.10
2018-02-22T16:47:34.995Z,66.40
2018-02-22T16:50:03.842Z,68.97
2018-02-22T16:52:31.800Z,66.53
2018-02-22T16:54:59.700Z,69.73
2018-02-22T16:57:27.566Z,63.63
2018-02-22T16:59:55.634Z,71.57
2018-02-22T17:02:24.323Z,77.40
2018-02-22T17:04:52.628Z,66.17
2018-02-22T17:07:21.556Z,71.60
2018-02-22T17:09:49.530Z,72.53
2018-02-22T17:12:17.304Z,67.73
2018-02-22T17:14:45.200Z,72.17
2018-02-22T17:17:13.866Z,74.13
2018-02-22T17:19:41.720Z,74.40
2018-02-22T17:22:09.584Z,77.40
2018-02-22T17:24:37.460Z,78.10
2018-02-22T17:27:10.938Z,73.70
2018-02-22T17:29:44.310Z,67.50
2018-02-22T17:32:17.834Z,72.57
2018-02-22T17:34:45.851Z,73.53
2018-02-22T17:37:15.158Z,74.10
2018-02-22T17:40:00.990Z,71.27
2018-02-22T17:42:29.468Z,78.80
2018-02-22T17:44:57.359Z,73.10
2018-02-22T17:47:25.524Z,81.50
2018-02-22T17:49:54.510Z,68.10
2018-02-22T17:52:22.523Z,69.33
2018-02-22T17:54:51.260Z,86.43
2018-02-22T17:57:19.349Z,70.73
2018-02-22T17:59:47.436Z,72.30
2018-02-22T18:02:15.482Z,65.97
2018-02-22T18:04:43.371Z,64.77
2018-02-22T18:07:11.317Z,65.77
2018-02-22T18:09:39.481Z,77.47
2018-02-22T18:12:07.383Z,90.53
2018-02-22T18:14:35.419Z,84.27
2018-02-22T18:17:03.387Z,86.23
2018-02-22T18:19:31.294Z,73.83
2018-02-22T18:22:00.060Z,67.70
2018-02-22T18:24:28.826Z,68.47
2018-02-22T18:26:56.872Z,76.50
2018-02-22T18:29:24.934Z,77.03
2018-02-22T18:31:52.919Z,69.90
2018-02-22T18:34:21.116Z,70.83
2018-02-22T18:36:49.027Z,66.40
2018-02-22T18:39:17.778Z,73.43
2018-02-22T18:41:54.448Z,72.53
2018-02-22T18:44:27.865Z,70.60
2018-02-22T18:46:55.701Z,70.90
2018-02-22T18:49:23.506Z,75.43
2018-02-22T18:51:52.254Z,76.30
2018-02-22T18:54:20.232Z,62.13
2018-02-22T18:56:48.128Z,75.93
2018-02-22T18:59:16.800Z,72.03
2018-02-22T19:01:45.342Z,70.07
2018-02-22T19:04:13.356Z,80.50
2018-02-22T19:06:41.243Z,74.03
2018-02-22T19:09:10.109Z,70.27
2018-02-22T19:11:37.880Z,76.23
2018-02-22T19:14:06.670Z,69.20
2018-02-22T19:16:34.704Z,70.90
2018-02-22T19:19:03.328Z,73.63
2018-02-22T19:21:32.077Z,81.33
2018-02-22T19:24:00.094Z,74.53
2018-02-22T19:26:28.778Z,76.67
2018-02-22T19:28:57.434Z,72.60
2018-02-22T19:31:26.242Z,79.80
2018-02-22T19:33:54.892Z,73.87
2018-02-22T19:36:22.858Z,68.00
2018-02-22T19:38:50.828Z,69.57
2018-02-22T19:41:18.795Z,73.80
2018-02-22T19:43:46.669Z,83.87
2018-02-22T19:46:14.589Z,66.80
2018-02-22T19:48:43.418Z,61.90
2018-02-22T19:51:11.421Z,71.33
2018-02-22T19:53:39.526Z,73.47
2018-02-22T19:56:07.633Z,70.20
2018-02-22T19:58:35.551Z,68.33
2018-02-22T20:01:04.103Z,74.17
2018-02-22T20:03:32.048Z,69.57
2018-02-22T20:06:00.094Z,68.07
2018-02-22T20:08:28.098Z,70.23
2018-02-22T20:10:55.947Z,67.77
2018-02-22T20:13:23.833Z,77.20
2018-02-22T20:15:51.788Z,61.30
2018-02-22T20:18:19.665Z,77.43
2018-02-22T20:20:47.561Z,65.53
2018-02-22T20:23:16.249Z,63.33
2018-02-22T20:25:44.106Z,68.63
2018-02-22T20:28:12.073Z,65.33
2018-02-22T20:30:40.024Z,66.93
2018-02-22T20:33:07.912Z,70.77
2018-02-22T20:35:36.065Z,74.37
2018-02-22T20:38:04.969Z,67.57
2018-02-22T20:40:32.912Z,63.43
2018-02-22T20:43:00.983Z,67.70
2018-02-22T20:45:29.053Z,72.57
2018-02-22T20:47:57.126Z,70.93
2018-02-22T20:50:25.126Z,62.97
2018-02-22T20:52:58.646Z,65.53
2018-02-22T20:55:42.092Z,78.47
2018-02-22T20:58:09.905Z,68.50
2018-02-22T21:00:37.889Z,59.67
2018-02-22T21:03:06.036Z,62.80
2018-02-22T21:05:33.927Z,77.03
2018-02-22T21:08:01.782Z,70.00
2018-02-22T21:10:29.632Z,72.93
2018-02-22T21:12:57.499Z,82.20
2018-02-22T21:15:25.390Z,85.50
2018-02-22T21:17:54.048Z,75.57
2018-02-22T21:20:21.936Z,81.50
2018-02-22T21:22:49.907Z,84.00
2018-02-22T21:25:17.773Z,65.87
2018-02-22T21:27:45.922Z,73.53
2018-02-22T21:30:13.819Z,76.77
2018-02-22T21:32:41.611Z,65.33
2018-02-22T21:35:10.163Z,64.60
2018-02-22T21:37:37.935Z,67.83
2018-02-22T21:40:07.198Z,65.27
2018-02-22T21:42:35.084Z,69.90
2018-02-22T21:45:03.002Z,63.57
2018-02-22T21:47:31.014Z,57.53
2018-02-22T21:49:59.075Z,75.30
2018-02-22T21:52:26.872Z,69.50
2018-02-22T21:54:54.816Z,65.70
2018-02-22T21:57:22.563Z,68.27
2018-02-22T21:59:50.436Z,72.60
2018-02-22T22:02:18.222Z,68.57
2018-02-22T22:04:46.072Z,66.90
2018-02-22T22:07:14.065Z,81.07
2018-02-22T22:09:42.007Z,75.83
2018-02-22T22:12:09.904Z,80.20
2018-02-22T22:14:37.859Z,75.00
2018-02-22T22:17:06.031Z,69.63
2018-02-22T22:19:33.861Z,64.90
2018-02-22T22:22:01.980Z,70.80
2018-02-22T22:24:29.932Z,68.63
2018-02-22T22:26:57.914Z,74.40
2018-02-22T22:29:25.964Z,73.50
2018-02-22T22:31:53.858Z,70.30
2018-02-22T22:34:21.631Z,78.83
2018-02-22T22:36:50.156Z,71.37
2018-02-22T22:39:18.049Z,74.60
2018-02-22T22:41:45.915Z,76.43
2018-02-22T22:44:13.989Z,74.53
2018-02-22T22:46:41.967Z,80.23
2018-02-22T22:49:09.837Z,71.33
2018-02-22T22:51:37.701Z,68.93
2018-02-22T22:54:07.001Z,72.13
2018-02-22T22:56:34.923Z,74.87
2018-02-22T22:59:03.664Z,81.60
2018-02-22T23:01:31.598Z,78.47
2018-02-22T23:03:59.673Z,79.10
2018-02-22T23:06:27.449Z,83.00
2018-02-22T23:08:55.327Z,75.50
2018-02-22T23:11:23.170Z,75.20
2018-02-22T23:13:50.950Z,79.27
2018-02-22T23:16:18.814Z,80.17
2018-02-22T23:18:46.598Z,90.47
2018-02-22T23:21:14.566Z,75.33
2018-02-22T23:23:42.620Z,85.73
2018-02-22T23:26:10.673Z,79.87
2018-02-22T23:28:38.543Z,77.93
2018-02-22T23:31:06.610Z,90.90
2018-02-22T23:33:35.422Z,78.33
2018-02-22T23:36:03.294Z,68.70
2018-02-22T23:38:31.978Z,77.90
2018-02-22T23:41:01.085Z,81.67
2018-02-22T23:43:29.316Z,71.23
2018-02-22T23:45:57.142Z,72.63
2018-02-22T23:48:25.982Z,77.77
2018-02-22T23:50:53.755Z,83.60
2018-02-22T23:53:21.631Z,66.07
2018-02-22T23:55:49.501Z,79.27
2018-02-22T23:58:17.466Z,90.73
